Time;durP1;ratioP1;P1;durP2;ratioP2;P2;SDS_P1;SDS_P2;PMS_P1;PMS_P2;Temp;Humidity;BMP_temperature;BMP_pressure;BME280_temperature;BME280_humidity;BME280_pressure;Samples;Min_cycle;Max_cycle;Signal;HPM_P1;HPM_P2
2022/07/29 00:00:14;;;;;;;5.10;3.08;;;;;;;16.66;76.22;100603.91;5036620;28;20026;-83
2022/07/29 00:02:40;;;;;;;5.00;2.45;;;;;;;16.64;75.95;100599.78;5070815;28;20033;-83
2022/07/29 00:05:08;;;;;;;5.13;2.00;;;;;;;16.65;76.02;100596.94;5073976;28;20033;-83
2022/07/29 00:07:34;;;;;;;5.28;3.00;;;;;;;16.61;76.11;100591.13;5047447;28;20688;-83
2022/07/29 00:09:59;;;;;;;7.53;3.38;;;;;;;16.58;76.06;100594.16;5087745;28;20549;-83
2022/07/29 00:12:25;;;;;;;5.65;3.63;;;;;;;16.54;76.37;100597.34;5060898;28;20111;-83
2022/07/29 00:14:53;;;;;;;8.43;3.33;;;;;;;16.51;76.26;100589.72;5054414;28;20566;-83
2022/07/29 00:17:18;;;;;;;10.45;3.08;;;;;;;16.51;76.54;100600.38;5054228;28;20075;-83
2022/07/29 00:19:44;;;;;;;4.07;2.45;;;;;;;16.51;76.67;100597.72;5050771;28;20461;-83
2022/07/29 00:22:11;;;;;;;7.95;3.22;;;;;;;16.49;76.71;100598.75;5043192;28;20114;-83
2022/07/29 00:24:37;;;;;;;5.70;2.90;;;;;;;16.48;76.83;100590.91;5054934;28;20072;-83
2022/07/29 00:27:03;;;;;;;5.70;3.25;;;;;;;16.47;76.97;100600.75;5067370;28;20039;-83
2022/07/29 00:29:29;;;;;;;10.88;4.05;;;;;;;16.45;77.01;100599.28;5054714;28;20036;-83
2022/07/29 00:31:55;;;;;;;5.47;3.10;;;;;;;16.38;77.30;100596.50;5054718;28;20040;-83
2022/07/29 00:37:05;;;;;;;4.93;3.47;;;;;;;16.17;78.54;100595.31;5035978;28;20112;-83
2022/07/29 00:39:31;;;;;;;7.63;3.40;;;;;;;16.08;78.90;100588.38;5055400;28;20107;-83
2022/07/29 00:41:57;;;;;;;9.35;3.88;;;;;;;16.02;79.44;100583.75;5053818;28;20082;-83
2022/07/29 00:44:22;;;;;;;5.43;3.22;;;;;;;15.94;79.91;100593.41;5048627;28;20498;-83
2022/07/29 00:46:48;;;;;;;5.75;3.40;;;;;;;15.93;80.28;100594.44;5052178;28;20455;-83
2022/07/29 00:49:14;;;;;;;7.15;3.85;;;;;;;15.92;80.39;100582.13;5053582;28;20029;-83
2022/07/29 00:51:40;;;;;;;5.75;2.78;;;;;;;15.96;80.34;100593.25;5085730;28;20124;-83
2022/07/29 00:54:07;;;;;;;7.80;3.40;;;;;;;16.02;80.02;100586.44;5051636;28;20055;-83
2022/07/29 00:56:33;;;;;;;10.82;3.28;;;;;;;16.06;79.97;100587.72;5085400;28;20028;-79
2022/07/29 00:59:00;;;;;;;7.07;3.33;;;;;;;16.08;79.68;100586.56;5052958;28;20025;-79
2022/07/29 01:01:26;;;;;;;9.10;3.72;;;;;;;16.10;79.97;100587.19;5065482;28;20043;-83
2022/07/29 01:03:53;;;;;;;12.20;3.45;;;;;;;16.08;79.99;100588.38;5034372;28;20115;-83
2022/07/29 01:06:20;;;;;;;8.57;4.13;;;;;;;16.07;80.03;100595.53;5052664;28;20039;-83
2022/07/29 01:08:48;;;;;;;20.30;4.40;;;;;;;16.06;80.08;100595.72;5056708;28;20078;-83
2022/07/29 01:11:15;;;;;;;7.35;3.15;;;;;;;16.02;80.15;100586.44;5049333;28;20055;-83
2022/07/29 01:13:43;;;;;;;11.05;4.05;;;;;;;16.04;80.24;100593.22;5059716;28;20080;-83
2022/07/29 01:16:24;;;;;;;10.52;5.55;;;;;;;16.04;80.05;100590.56;5051198;28;20035;-83
2022/07/29 01:18:58;;;;;;;13.65;4.70;;;;;;;16.05;80.39;100592.25;5062113;28;20028;-83
2022/07/29 01:21:52;;;;;;;10.63;4.35;;;;;;;16.06;80.29;100593.06;5057582;28;20032;-83
2022/07/29 01:24:50;;;;;;;8.82;4.35;;;;;;;16.08;80.13;100586.56;5051097;28;20029;-83
2022/07/29 01:27:28;;;;;;;13.10;3.92;;;;;;;16.11;80.35;100598.69;5050181;28;20029;-83
2022/07/29 01:29:58;;;;;;;11.25;4.88;;;;;;;16.13;80.23;100594.03;5052507;28;20090;-83
2022/07/29 01:32:35;;;;;;;11.07;3.97;;;;;;;16.14;80.14;100595.66;5052133;28;20041;-84
2022/07/29 01:35:24;;;;;;;14.10;4.13;;;;;;;16.04;80.50;100597.75;5051507;28;20044;-83
2022/07/29 01:37:59;;;;;;;10.52;4.15;;;;;;;16.02;80.82;100589.09;5052565;28;20478;-83
2022/07/29 01:40:31;;;;;;;11.52;4.07;;;;;;;16.03;80.99;100594.25;5051214;28;20430;-83
2022/07/29 01:43:03;;;;;;;10.90;5.10;;;;;;;16.06;80.82;100599.22;5044199;28;20029;-83
2022/07/29 01:45:40;;;;;;;13.43;4.35;;;;;;;16.04;80.65;100600.41;5046151;28;20064;-83
2022/07/29 01:48:15;;;;;;;13.52;4.13;;;;;;;16.01;81.00;100588.25;5050712;28;20048;-83
2022/07/29 01:51:10;;;;;;;12.43;5.37;;;;;;;15.87;81.18;100592.47;5050861;28;20037;-83
2022/07/29 01:53:42;;;;;;;18.70;5.70;;;;;;;15.85;81.61;100597.97;5042695;28;20059;-79
2022/07/29 01:56:10;;;;;;;9.55;3.55;;;;;;;15.81;81.91;100594.03;5078291;28;20112;-83
2022/07/29 01:58:40;;;;;;;8.23;3.70;;;;;;;15.76;82.24;100593.72;5048790;28;20025;-83
2022/07/29 02:01:09;;;;;;;9.60;4.55;;;;;;;15.77;82.35;100592.69;5050166;28;20020;-83
2022/07/29 02:03:37;;;;;;;9.20;4.10;;;;;;;15.83;82.33;100593.84;5048616;28;20091;-83
2022/07/29 02:06:06;;;;;;;7.28;3.50;;;;;;;15.88;81.89;100597.63;5049903;28;20025;-83
2022/07/29 02:08:33;;;;;;;3.03;2.72;;;;;;;15.91;81.94;100585.78;5048798;28;20700;-74
2022/07/29 02:11:02;;;;;;;5.65;2.42;;;;;;;15.95;81.59;100587.09;5050000;28;20039;-83
2022/07/29 02:13:28;;;;;;;6.63;2.67;;;;;;;15.98;81.51;100592.13;5049764;28;20392;-83
2022/07/29 02:15:57;;;;;;;4.88;3.10;;;;;;;16.02;81.47;100591.75;5049126;28;20135;-83
2022/07/29 02:18:27;;;;;;;4.80;2.83;;;;;;;16.06;81.29;100593.06;5054626;28;20093;-83
2022/07/29 02:20:55;;;;;;;3.75;2.97;;;;;;;16.08;81.30;100597.22;5054444;28;20028;-79
2022/07/29 02:23:23;;;;;;;4.72;2.90;;;;;;;16.14;81.00;100589.50;5057134;28;20037;-79
2022/07/29 02:25:53;;;;;;;6.38;2.60;;;;;;;16.15;80.93;100593.84;5051007;28;20086;-83
2022/07/29 02:28:20;;;;;;;6.40;3.05;;;;;;;16.14;81.05;100587.66;5050954;28;20397;-83
2022/07/29 02:30:48;;;;;;;4.38;2.20;;;;;;;16.09;81.19;100582.88;5050318;28;20033;-82
2022/07/29 02:33:16;;;;;;;6.10;2.33;;;;;;;16.05;81.17;100581.56;5051713;28;20499;-83
2022/07/29 02:35:46;;;;;;;6.80;2.22;;;;;;;16.01;81.43;100582.09;5051597;28;20509;-83
2022/07/29 02:41:11;;;;;;;6.18;2.42;;;;;;;15.96;81.79;100577.25;5051762;28;20033;-83
2022/07/29 02:43:38;;;;;;;5.70;2.70;;;;;;;15.99;81.69;100575.09;5051399;28;20115;-83
2022/07/29 02:46:08;;;;;;;7.32;2.92;;;;;;;15.99;81.76;100574.25;5053881;28;20036;-83
2022/07/29 02:48:38;;;;;;;4.93;2.30;;;;;;;16.02;81.41;100565.94;5052506;28;20048;-83
2022/07/29 02:51:09;;;;;;;8.48;3.55;;;;;;;16.03;81.48;100572.06;5052536;28;20033;-83
2022/07/29 02:53:37;;;;;;;8.57;2.67;;;;;;;16.05;81.17;100578.06;5083276;28;20036;-83
2022/07/29 02:56:14;;;;;;;3.75;2.78;;;;;;;16.04;81.04;100563.09;5031624;28;20478;-83
2022/07/29 02:58:49;;;;;;;4.93;2.67;;;;;;;16.02;81.25;100565.94;5033648;28;20098;-83
2022/07/29 03:01:28;;;;;;;3.63;3.05;;;;;;;15.99;81.20;100571.59;5052469;28;20035;-83
2022/07/29 03:03:54;;;;;;;6.35;2.33;;;;;;;15.98;81.18;100575.28;5052793;28;20036;-83
2022/07/29 03:06:23;;;;;;;4.60;2.67;;;;;;;15.98;81.05;100573.44;5052464;28;20022;-83
2022/07/29 03:08:50;;;;;;;7.13;3.00;;;;;;;16.00;80.90;100578.59;5052555;28;20064;-83
2022/07/29 03:11:17;;;;;;;3.38;2.40;;;;;;;15.99;80.55;100572.44;5052248;28;20052;-83
2022/07/29 03:13:44;;;;;;;5.28;2.90;;;;;;;15.99;80.46;100569.78;5055167;28;20041;-83
2022/07/29 03:16:11;;;;;;;5.28;2.90;;;;;;;15.96;80.49;100571.91;5056385;28;20028;-83
2022/07/29 03:18:37;;;;;;;3.35;2.30;;;;;;;15.91;80.41;100572.44;5058317;28;20029;-83
2022/07/29 03:21:03;;;;;;;6.32;3.10;;;;;;;15.85;80.50;100581.16;5056285;28;20032;-83
2022/07/29 03:23:29;;;;;;;3.90;2.90;;;;;;;15.81;80.66;100580.69;5055901;28;20477;-83
2022/07/29 03:25:56;;;;;;;5.13;2.33;;;;;;;15.74;80.53;100587.72;5059141;28;20036;-83
2022/07/29 03:28:22;;;;;;;2.83;2.53;;;;;;;15.63;80.77;100587.13;5053700;28;20449;-83
2022/07/29 03:30:48;;;;;;;6.75;2.60;;;;;;;15.57;81.08;100592.31;5055250;28;20079;-83
2022/07/29 03:33:14;;;;;;;2.95;2.60;;;;;;;15.50;81.46;100594.81;5054935;28;20100;-83
2022/07/29 03:35:41;;;;;;;5.45;3.17;;;;;;;15.40;81.98;100600.34;5054749;28;20041;-83
2022/07/29 03:38:07;;;;;;;3.60;2.53;;;;;;;15.35;82.36;100600.06;5066703;28;20036;-83
2022/07/29 03:40:38;;;;;;;4.47;2.70;;;;;;;15.33;82.82;100602.06;5054684;28;20025;-83
2022/07/29 03:43:05;;;;;;;8.68;2.92;;;;;;;15.29;83.17;100606.06;5053598;28;20363;-83
2022/07/29 03:45:33;;;;;;;3.55;2.70;;;;;;;15.23;83.54;100603.09;5056770;28;20482;-83
2022/07/29 03:48:04;;;;;;;4.20;2.88;;;;;;;15.22;83.73;100606.75;5054279;28;20489;-83
2022/07/29 03:50:32;;;;;;;4.70;2.60;;;;;;;15.23;83.83;100597.75;5040894;28;20033;-83
2022/07/29 03:52:58;;;;;;;6.18;2.70;;;;;;;15.25;83.78;100602.91;5048593;28;20025;-83
2022/07/29 03:55:26;;;;;;;6.35;3.08;;;;;;;15.28;83.63;100599.06;5054390;28;20084;-83
2022/07/29 03:57:52;;;;;;;3.50;2.63;;;;;;;15.31;83.72;100598.72;5034914;28;20033;-83
2022/07/29 04:00:19;;;;;;;7.57;2.95;;;;;;;15.30;83.21;100594.41;5054042;28;20090;-83
2022/07/29 04:02:48;;;;;;;9.80;3.58;;;;;;;15.32;83.11;100595.06;5053453;28;20547;-83
2022/07/29 04:05:15;;;;;;;5.50;2.55;;;;;;;15.32;82.96;100601.22;5054189;28;20037;-83
2022/07/29 04:07:44;;;;;;;3.90;2.58;;;;;;;15.33;82.82;100594.06;5052655;28;20085;-83
2022/07/29 04:10:10;;;;;;;4.63;2.83;;;;;;;15.33;82.89;100591.41;5069617;28;20033;-83
2022/07/29 04:12:36;;;;;;;2.95;2.60;;;;;;;15.30;82.84;100597.91;5055171;28;20032;-83
2022/07/29 04:15:03;;;;;;;3.53;2.42;;;;;;;15.27;82.84;100598.25;5060991;28;20366;-83
2022/07/29 04:17:29;;;;;;;4.18;2.70;;;;;;;15.21;82.99;100602.41;5032453;28;20045;-83
2022/07/29 04:19:55;;;;;;;3.92;2.78;;;;;;;15.17;83.14;100597.59;5046848;28;20048;-83
2022/07/29 04:22:21;;;;;;;5.47;2.65;;;;;;;15.17;83.21;100606.44;5053972;28;20108;-79
2022/07/29 04:24:47;;;;;;;5.03;2.42;;;;;;;15.12;83.34;100609.63;5053681;28;20036;-78
2022/07/29 04:27:13;;;;;;;3.70;2.55;;;;;;;15.15;83.50;100607.59;5088774;28;20037;-83
2022/07/29 04:29:38;;;;;;;3.80;2.17;;;;;;;15.17;83.45;100606.44;5051965;28;20029;-83
2022/07/29 04:32:05;;;;;;;4.07;2.92;;;;;;;15.18;83.33;100610.75;5054020;28;20040;-83
2022/07/29 04:34:31;;;;;;;5.38;2.58;;;;;;;15.18;83.26;100608.09;5053327;28;20033;-83
2022/07/29 04:36:56;;;;;;;3.03;2.72;;;;;;;15.21;83.31;100617.59;5062643;28;20550;-83
2022/07/29 04:39:23;;;;;;;5.28;2.45;;;;;;;15.21;83.30;100610.41;5069013;28;20029;-83
2022/07/29 04:41:49;;;;;;;14.05;2.92;;;;;;;15.20;83.39;100605.25;5029244;28;20051;-83
2022/07/29 04:44:15;;;;;;;3.72;2.20;;;;;;;15.20;83.26;100607.91;5039420;28;20099;-83
2022/07/29 04:46:41;;;;;;;6.65;3.00;;;;;;;15.17;82.98;100603.78;5053374;28;20485;-79
2022/07/29 04:49:07;;;;;;;5.22;3.03;;;;;;;15.19;83.25;100598.28;5053441;28;20041;-79
2022/07/29 04:51:33;;;;;;;5.55;2.90;;;;;;;15.21;83.18;100604.28;5052994;28;20485;-83
2022/07/29 04:53:59;;;;;;;8.77;3.28;;;;;;;15.22;83.28;100603.25;5053503;28;20470;-83
2022/07/29 04:56:25;;;;;;;4.80;3.55;;;;;;;15.22;83.49;100601.44;5053079;28;20029;-83
2022/07/29 04:58:51;;;;;;;7.35;3.00;;;;;;;15.26;83.48;100593.91;5052618;28;20033;-83
2022/07/29 05:01:17;;;;;;;4.90;3.10;;;;;;;15.27;83.60;100597.41;5053191;28;20086;-83
2022/07/29 05:03:43;;;;;;;4.82;3.30;;;;;;;15.30;83.57;100594.41;5052950;28;20029;-83
2022/07/29 05:06:09;;;;;;;5.20;3.38;;;;;;;15.31;83.49;100596.91;5053514;28;20037;-83
2022/07/29 05:08:35;;;;;;;4.35;2.90;;;;;;;15.31;83.68;100596.06;5052746;28;20371;-83
2022/07/29 05:11:01;;;;;;;6.03;3.03;;;;;;;15.28;83.56;100594.59;5056800;28;20036;-84
2022/07/29 05:13:26;;;;;;;4.53;2.80;;;;;;;15.22;83.72;100596.13;5031954;28;20095;-83
2022/07/29 05:15:52;;;;;;;5.05;2.50;;;;;;;15.11;84.18;100605.28;5045446;28;20090;-83
2022/07/29 05:18:18;;;;;;;6.97;2.25;;;;;;;15.07;84.62;100603.13;5079822;28;20037;-83
2022/07/29 05:20:44;;;;;;;3.80;2.03;;;;;;;15.06;84.67;100606.78;5043816;28;20041;-74
2022/07/29 05:23:12;;;;;;;4.47;2.95;;;;;;;15.05;84.80;100607.81;5052641;28;20025;-83
2022/07/29 05:25:38;;;;;;;3.42;2.22;;;;;;;15.03;84.91;100612.47;5059557;28;20033;-83
2022/07/29 05:28:04;;;;;;;6.40;2.78;;;;;;;15.03;85.10;100607.97;5052323;28;20033;-83
2022/07/29 05:30:30;;;;;;;5.32;2.78;;;;;;;15.03;85.21;100609.78;5052308;28;20500;-83
2022/07/29 05:32:56;;;;;;;3.95;2.85;;;;;;;15.03;85.24;100610.63;5051579;28;20028;-83
2022/07/29 05:35:22;;;;;;;3.17;2.65;;;;;;;15.02;85.44;100605.47;5055486;28;20060;-83
2022/07/29 05:37:48;;;;;;;3.13;2.47;;;;;;;15.04;85.67;100612.28;5062618;28;20032;-83
2022/07/29 05:40:14;;;;;;;3.00;2.65;;;;;;;15.07;85.87;100611.09;5053389;28;20036;-83
2022/07/29 05:42:39;;;;;;;5.78;2.83;;;;;;;15.10;85.71;100605.44;5057730;28;20033;-83
2022/07/29 05:45:06;;;;;;;2.92;2.63;;;;;;;15.17;85.56;100614.44;5053465;28;20029;-83
2022/07/29 05:47:31;;;;;;;8.48;3.47;;;;;;;15.20;85.47;100611.41;5053290;28;20036;-83
2022/07/29 05:49:57;;;;;;;6.35;3.33;;;;;;;15.24;85.44;100618.06;5052330;28;20047;-83
2022/07/29 05:52:23;;;;;;;6.07;3.47;;;;;;;15.31;85.48;100606.72;5050546;28;20032;-83
2022/07/29 05:54:49;;;;;;;7.13;3.90;;;;;;;15.34;85.42;100622.34;5053397;28;20067;-83
2022/07/29 05:57:16;;;;;;;3.58;3.28;;;;;;;15.37;85.78;100619.34;5052754;28;20508;-83
2022/07/29 05:59:42;;;;;;;15.43;3.67;;;;;;;15.38;86.01;100615.69;5053262;28;20385;-82
2022/07/29 06:02:08;;;;;;;6.90;3.05;;;;;;;15.42;85.85;100622.31;5053254;28;20025;-78
2022/07/29 06:04:34;;;;;;;3.88;3.08;;;;;;;15.43;86.23;100613.31;5053187;28;20086;-78
2022/07/29 06:06:59;;;;;;;6.18;3.50;;;;;;;15.47;86.46;100612.00;5085709;28;20078;-83
2022/07/29 06:09:25;;;;;;;6.85;3.47;;;;;;;15.52;86.35;100611.47;5051617;28;20037;-83
2022/07/29 06:11:52;;;;;;;3.83;3.15;;;;;;;15.55;86.32;100608.47;5084427;28;20056;-83
2022/07/29 06:14:18;;;;;;;6.90;3.00;;;;;;;15.60;86.30;100614.09;5053171;28;20142;-83
2022/07/29 06:16:44;;;;;;;4.10;3.22;;;;;;;15.62;86.27;100612.09;5051773;28;20024;-83
2022/07/29 06:19:10;;;;;;;5.03;3.70;;;;;;;15.59;86.58;100611.63;5085305;28;20116;-83
2022/07/29 06:21:36;;;;;;;5.18;3.78;;;;;;;15.55;86.71;100619.13;5051033;28;20080;-83
2022/07/29 06:24:02;;;;;;;5.65;4.10;;;;;;;15.52;87.08;100615.97;5051461;28;20483;-83
2022/07/29 06:26:27;;;;;;;8.05;3.55;;;;;;;15.50;87.55;100629.47;5052683;28;20036;-83
2022/07/29 06:28:53;;;;;;;5.57;4.70;;;;;;;15.47;87.41;100624.47;5051650;28;20029;-83
2022/07/29 06:31:19;;;;;;;5.57;3.60;;;;;;;15.48;87.64;100615.50;5050430;28;20025;-83
2022/07/29 06:33:45;;;;;;;5.55;3.65;;;;;;;15.53;87.53;100622.97;5050562;28;20056;-83
2022/07/29 06:36:11;;;;;;;5.07;3.80;;;;;;;15.61;87.30;100626.41;5055872;28;20487;-83
2022/07/29 06:38:38;;;;;;;6.07;4.00;;;;;;;15.68;86.81;100631.06;5057576;28;20032;-83
2022/07/29 06:41:05;;;;;;;5.25;3.63;;;;;;;15.72;86.69;100635.00;5052418;28;20276;-83
2022/07/29 06:43:33;;;;;;;5.35;3.85;;;;;;;15.80;86.54;100629.66;5056803;28;20037;-83
2022/07/29 06:46:10;;;;;;;12.48;4.40;;;;;;;15.85;86.27;100626.47;5066820;28;20090;-83
2022/07/29 06:48:37;;;;;;;4.18;3.63;;;;;;;15.90;86.51;100629.44;5055448;28;20036;-83
2022/07/29 06:51:04;;;;;;;6.47;3.90;;;;;;;15.97;86.44;100626.91;5054797;28;20108;-83
2022/07/29 06:53:31;;;;;;;7.70;4.28;;;;;;;16.05;86.35;100628.72;5019321;28;20053;-83
2022/07/29 06:55:59;;;;;;;8.20;4.38;;;;;;;16.11;86.38;100625.34;5044763;28;20043;-79
2022/07/29 06:58:27;;;;;;;9.13;3.85;;;;;;;16.18;86.53;100626.28;5052675;28;20473;-78
2022/07/29 07:01:00;;;;;;;5.88;4.28;;;;;;;16.25;86.60;100631.75;5054544;28;20068;-83
2022/07/29 07:03:26;;;;;;;10.48;3.70;;;;;;;16.30;86.68;100634.72;5053759;28;20098;-83
2022/07/29 07:05:53;;;;;;;7.55;3.75;;;;;;;16.41;87.32;100635.31;5055087;28;20072;-82
2022/07/29 07:08:20;;;;;;;6.47;3.90;;;;;;;16.45;87.21;100634.78;5055122;28;20024;-83
2022/07/29 07:10:46;;;;;;;5.65;3.67;;;;;;;16.47;87.37;100637.25;5055248;28;20063;-83
2022/07/29 07:13:12;;;;;;;5.53;3.53;;;;;;;16.50;87.41;100634.22;5055320;28;20055;-83
2022/07/29 07:15:38;;;;;;;3.65;3.10;;;;;;;16.56;87.69;100638.03;5055077;28;20064;-83
2022/07/29 07:18:05;;;;;;;6.38;3.80;;;;;;;16.66;87.80;100646.63;5055224;28;20036;-83
2022/07/29 07:20:32;;;;;;;7.63;3.20;;;;;;;16.78;87.81;100641.69;5054007;28;20486;-83
2022/07/29 07:22:58;;;;;;;4.30;3.13;;;;;;;16.88;87.53;100651.28;5055037;28;20033;-83
2022/07/29 07:25:24;;;;;;;5.78;3.08;;;;;;;16.98;87.58;100647.34;5053936;28;20036;-83
2022/07/29 07:27:50;;;;;;;5.40;2.88;;;;;;;17.17;87.16;100649.69;5037495;28;20474;-83
2022/07/29 07:30:16;;;;;;;3.55;2.72;;;;;;;17.29;87.07;100655.41;5054860;28;20033;-83
2022/07/29 07:32:42;;;;;;;3.45;2.75;;;;;;;17.35;86.45;100650.16;5053694;28;20041;-77
2022/07/29 07:35:09;;;;;;;3.38;2.78;;;;;;;17.45;86.06;100651.72;5054811;28;20108;-78
2022/07/29 07:37:35;;;;;;;3.70;2.75;;;;;;;17.58;85.88;100646.53;5058662;28;20040;-83
2022/07/29 07:40:03;;;;;;;6.05;2.50;;;;;;;17.71;85.30;100651.22;5044800;28;20456;-83
2022/07/29 07:42:29;;;;;;;5.70;2.78;;;;;;;17.85;84.90;100643.38;5061602;28;20029;-83
2022/07/29 07:44:55;;;;;;;5.03;2.97;;;;;;;17.98;84.45;100640.03;5054938;28;20627;-83
2022/07/29 07:47:20;;;;;;;5.10;2.70;;;;;;;18.16;83.93;100642.31;5054407;28;20056;-83
2022/07/29 07:49:47;;;;;;;2.95;2.13;;;;;;;18.33;83.40;100640.19;5053538;28;20512;-83
2022/07/29 07:52:14;;;;;;;3.55;1.95;;;;;;;18.45;82.44;100635.19;5054265;28;20485;-83
2022/07/29 07:54:40;;;;;;;7.53;2.08;;;;;;;18.35;81.61;100624.78;5054676;28;20115;-83
2022/07/29 07:57:06;;;;;;;2.80;1.83;;;;;;;18.19;81.22;100636.56;5053185;28;20393;-83
2022/07/29 07:59:32;;;;;;;2.55;1.80;;;;;;;18.11;81.27;100633.97;5053481;28;20037;-83
2022/07/29 08:01:58;;;;;;;3.10;1.73;;;;;;;18.07;81.12;100641.56;5054279;28;20089;-79
2022/07/29 08:04:24;;;;;;;4.25;1.80;;;;;;;18.07;80.76;100641.56;5042667;28;20049;-78
2022/07/29 08:06:50;;;;;;;2.63;1.70;;;;;;;18.14;80.66;100647.00;5050898;28;20029;-83
2022/07/29 08:09:16;;;;;;;1.40;1.30;;;;;;;18.27;80.33;100640.16;5036427;28;20029;-83
2022/07/29 08:11:42;;;;;;;2.05;1.33;;;;;;;18.30;79.82;100635.22;5056362;28;20144;-83
2022/07/29 08:14:08;;;;;;;1.50;1.15;;;;;;;18.31;79.40;100630.72;5052639;28;20025;-83
2022/07/29 08:16:33;;;;;;;3.42;1.30;;;;;;;18.36;78.64;100625.63;5054010;28;20447;-83
2022/07/29 08:18:59;;;;;;;5.05;1.15;;;;;;;18.36;78.32;100620.28;5054300;28;20187;-83
2022/07/29 08:21:25;;;;;;;2.63;1.20;;;;;;;18.29;78.35;100628.22;5053678;28;20033;-83
2022/07/29 08:24:42;;;;;;;2.28;0.95;;;;;;;18.34;78.93;100619.63;5053979;28;20033;-83
2022/07/29 08:26:41;;;;;;;1.90;0.80;;;;;;;18.40;78.61;100613.50;5055749;28;20029;-83
2022/07/29 08:29:07;;;;;;;0.70;0.40;;;;;;;18.37;78.10;100602.34;5054162;28;20029;-83
2022/07/29 08:31:33;;;;;;;4.00;0.70;;;;;;;18.37;77.80;100610.38;5054256;28;20052;-78
2022/07/29 08:33:59;;;;;;;0.47;0.40;;;;;;;18.47;77.27;100605.53;5087500;28;20063;-78
2022/07/29 08:36:26;;;;;;;0.45;0.30;;;;;;;18.60;76.45;100599.47;5059408;28;20044;-82
2022/07/29 08:38:52;;;;;;;4.47;0.30;;;;;;;18.67;75.57;100608.38;5065814;28;20500;-83
2022/07/29 08:41:19;;;;;;;0.30;0.30;;;;;;;18.59;74.66;100598.63;5054318;28;20021;-83
2022/07/29 08:43:46;;;;;;;1.23;0.10;;;;;;;18.45;74.40;100599.53;5054633;28;20040;-83
2022/07/29 08:46:12;;;;;;;4.45;0.43;;;;;;;18.35;74.33;100600.72;5060966;28;20044;-83
2022/07/29 08:48:39;;;;;;;0.50;0.20;;;;;;;18.25;74.20;100602.06;5050378;28;20552;-83
2022/07/29 08:51:07;;;;;;;1.13;0.77;;;;;;;18.20;74.30;100608.78;5053618;28;20033;-82
2022/07/29 08:53:33;;;;;;;0.95;0.38;;;;;;;18.11;74.50;100615.25;5054016;28;20037;-83
2022/07/29 08:55:59;;;;;;;1.88;0.20;;;;;;;18.06;74.72;100621.19;5054497;28;20028;-83
2022/07/29 08:58:26;;;;;;;1.75;0.38;;;;;;;18.03;74.42;100626.09;5052888;28;20064;-83
2022/07/29 09:00:55;;;;;;;1.42;0.30;;;;;;;18.12;74.50;100616.97;5061888;28;20045;-82
2022/07/29 09:03:24;;;;;;;1.45;0.20;;;;;;;18.28;74.08;100617.72;5049425;28;20032;-83
2022/07/29 09:05:51;;;;;;;0.10;0.10;;;;;;;18.45;73.45;100613.75;5054382;28;20033;-83
2022/07/29 09:08:17;;;;;;;0.63;0.32;;;;;;;18.66;72.92;100619.28;5057925;28;20557;-83
2022/07/29 09:10:44;;;;;;;0.50;0.20;;;;;;;18.85;72.23;100609.75;5053107;28;20044;-83
2022/07/29 09:13:10;;;;;;;0.43;0.20;;;;;;;18.99;71.66;100605.28;5054072;28;20032;-83
2022/07/29 09:15:36;;;;;;;1.27;0.20;;;;;;;19.15;71.23;100608.72;5032622;28;20126;-83
2022/07/29 09:18:02;;;;;;;0.68;0.10;;;;;;;19.23;70.89;100611.22;5047534;28;20099;-78
2022/07/29 09:23:23;;;;;;;0.10;0.10;;;;;;;19.06;69.93;100614.19;4991212;28;20078;-83
2022/07/29 09:25:49;;;;;;;1.85;0.25;;;;;;;18.99;70.25;100610.66;5022282;28;20060;-82
2022/07/29 09:28:17;;;;;;;0.60;0.20;;;;;;;18.92;70.32;100620.50;5039571;28;20029;-83
2022/07/29 09:30:58;;;;;;;0.57;0.20;;;;;;;18.91;70.22;100617.00;5051223;28;20112;-83
2022/07/29 09:33:34;;;;;;;2.22;0.20;;;;;;;19.04;70.51;100610.91;5051264;28;20497;-83
2022/07/29 09:36:04;;;;;;;0.70;0.20;;;;;;;19.17;70.29;100604.00;5058864;28;20116;-83
2022/07/29 09:38:30;;;;;;;0.40;0.20;;;;;;;19.33;70.13;100598.28;5069263;28;20033;-83
2022/07/29 09:41:02;;;;;;;0.75;0.35;;;;;;;19.53;69.48;100591.34;5052195;28;20450;-83
2022/07/29 09:43:28;;;;;;;1.20;0.30;;;;;;;19.66;69.35;100599.47;5084464;28;20124;-83
2022/07/29 09:45:54;;;;;;;0.38;0.30;;;;;;;19.73;69.42;100593.28;5052435;28;20106;-79
2022/07/29 09:48:22;;;;;;;0.28;0.20;;;;;;;19.71;68.97;100593.50;5052094;28;20086;-79
2022/07/29 09:50:49;;;;;;;0.55;0.20;;;;;;;19.76;69.04;100588.34;5059137;28;20025;-82
2022/07/29 09:53:47;;;;;;;0.63;0.17;;;;;;;19.99;68.11;100592.53;5050690;28;20044;-83
2022/07/29 09:56:14;;;;;;;0.52;0.10;;;;;;;20.25;68.20;100582.06;5018636;28;20045;-82
2022/07/29 09:58:39;;;;;;;0.10;0.10;;;;;;;20.38;67.57;100575.88;5051954;28;20477;-83
2022/07/29 10:01:05;;;;;;;0.10;0.10;;;;;;;20.34;66.57;100580.81;5052349;28;20037;-79
2022/07/29 10:03:32;;;;;;;0.40;0.20;;;;;;;20.27;66.66;100580.00;5050110;28;20155;-79
2022/07/29 10:06:11;;;;;;;0.17;0.10;;;;;;;20.18;66.50;100592.78;5052442;28;20037;-83
2022/07/29 10:08:37;;;;;;;0.30;0.10;;;;;;;20.10;67.06;100588.44;5051731;28;20037;-83
2022/07/29 10:11:17;;;;;;;2.67;0.20;;;;;;;19.99;66.98;100589.03;5062909;28;20392;-83
2022/07/29 10:13:44;;;;;;;0.98;0.10;;;;;;;19.88;67.28;100595.78;5051085;28;20041;-82
2022/07/29 10:16:10;;;;;;;0.40;0.10;;;;;;;19.86;67.53;100604.03;5057800;28;20108;-83
2022/07/29 10:18:42;;;;;;;0.17;0.17;;;;;;;20.03;67.22;100607.22;5083783;28;20474;-83
2022/07/29 10:21:07;;;;;;;0.10;0.00;;;;;;;20.10;66.88;100606.41;5051014;28;20070;-82
2022/07/29 10:23:35;;;;;;;0.20;0.10;;;;;;;20.18;66.54;100617.75;5058529;28;20424;-83
2022/07/29 10:26:03;;;;;;;1.45;0.10;;;;;;;20.22;66.49;100623.56;5052042;28;20090;-83
2022/07/29 10:28:32;;;;;;;0.75;0.20;;;;;;;20.11;65.93;100616.09;5051693;28;20485;-83
2022/07/29 10:31:06;;;;;;;0.52;0.10;;;;;;;19.92;66.16;100621.19;5050918;28;20033;-83
2022/07/29 10:33:43;;;;;;;0.55;0.32;;;;;;;19.77;66.55;100624.88;5059483;28;20121;-83
2022/07/29 10:36:09;;;;;;;0.00;0.00;;;;;;;19.63;67.05;100634.72;5053166;28;20043;-83
2022/07/29 10:39:20;;;;;;;0.20;0.10;;;;;;;19.54;66.93;100649.31;5057861;28;20473;-83
2022/07/29 10:41:55;;;;;;;0.10;0.10;;;;;;;19.53;67.60;100647.66;5026632;28;20045;-83
2022/07/29 10:44:23;;;;;;;0.35;0.20;;;;;;;19.57;67.74;100639.00;5051721;28;20025;-83
2022/07/29 10:46:50;;;;;;;0.73;0.13;;;;;;;19.62;67.40;100637.59;5049965;28;20033;-83
2022/07/29 10:49:21;;;;;;;0.60;0.10;;;;;;;19.67;67.11;100622.56;5050449;28;20037;-83
2022/07/29 10:52:11;;;;;;;2.20;0.20;;;;;;;19.73;66.87;100615.56;5050456;28;20091;-83
2022/07/29 10:54:41;;;;;;;0.95;0.10;;;;;;;19.78;67.35;100614.97;5051712;28;20033;-83
2022/07/29 10:57:13;;;;;;;0.17;0.10;;;;;;;19.80;66.87;100608.38;5051088;28;20033;-83
2022/07/29 10:59:41;;;;;;;0.98;0.20;;;;;;;19.85;66.93;100610.44;5055536;28;20087;-83
2022/07/29 11:02:36;;;;;;;3.50;0.10;;;;;;;19.83;66.43;100609.81;5050187;28;20075;-83
2022/07/29 11:05:05;;;;;;;0.90;0.20;;;;;;;19.80;67.18;100610.22;5046558;28;20094;-83
2022/07/29 11:07:34;;;;;;;0.10;0.10;;;;;;;19.77;67.28;100608.78;5050234;28;20500;-83
2022/07/29 11:10:11;;;;;;;0.13;0.10;;;;;;;19.73;66.63;100617.44;5051693;28;20037;-83
2022/07/29 11:12:37;;;;;;;0.73;0.10;;;;;;;19.74;67.19;100606.50;5052414;28;20045;-84
2022/07/29 11:15:04;;;;;;;1.63;0.08;;;;;;;19.78;67.38;100614.97;5053742;28;20033;-83
2022/07/29 11:18:00;;;;;;;1.65;0.17;;;;;;;19.80;66.88;100619.09;5051190;28;20103;-79
2022/07/29 11:20:44;;;;;;;0.20;0.00;;;;;;;19.83;66.49;100612.50;5051480;28;20036;-79
2022/07/29 11:23:26;;;;;;;0.10;0.10;;;;;;;19.88;66.56;100615.41;5050977;28;20036;-83
2022/07/29 11:26:11;;;;;;;0.50;0.13;;;;;;;19.88;66.78;100619.94;5054880;28;20025;-83
2022/07/29 11:28:53;;;;;;;0.20;0.10;;;;;;;19.95;67.18;100618.94;5043061;28;20079;-83
2022/07/29 11:31:32;;;;;;;2.08;0.10;;;;;;;19.96;66.50;100634.00;5050712;28;20363;-83
2022/07/29 11:34:22;;;;;;;0.68;0.10;;;;;;;19.95;66.59;100629.69;5053553;28;20041;-83
2022/07/29 11:37:10;;;;;;;0.20;0.10;;;;;;;19.92;66.52;100631.94;5056072;28;20046;-83
2022/07/29 11:39:46;;;;;;;3.63;0.17;;;;;;;19.98;66.97;100624.91;5044301;28;20033;-83